sensor_id;sensor_type;location;lat;lon;timestamp;pressure;altitude;pressure_sealevel;temperature;humidity
15405;BME280;7801;48.124;11.590;2023-02-17T00:01:14;96294.59;;;9.72;51.80
15405;BME280;7801;48.124;11.590;2023-02-17T00:03:39;96293.81;;;9.76;51.73
15405;BME280;7801;48.124;11.590;2023-02-17T00:06:07;96285.84;;;9.76;51.76
15405;BME280;7801;48.124;11.590;2023-02-17T00:08:33;96285.31;;;9.74;51.20
15405;BME280;7801;48.124;11.590;2023-02-17T00:10:59;96282.13;;;9.72;51.61
15405;BME280;7801;48.124;11.590;2023-02-17T00:13:24;96277.62;;;9.73;51.25
15405;BME280;7801;48.124;11.590;2023-02-17T00:15:50;96282.41;;;9.76;51.21
15405;BME280;7801;48.124;11.590;2023-02-17T00:18:16;96283.19;;;9.76;51.38
15405;BME280;7801;48.124;11.590;2023-02-17T00:20:41;96287.69;;;9.81;51.63
15405;BME280;7801;48.124;11.590;2023-02-17T00:23:06;96287.44;;;9.82;52.05
15405;BME280;7801;48.124;11.590;2023-02-17T00:25:32;96286.91;;;9.75;51.69
15405;BME280;7801;48.124;11.590;2023-02-17T00:27:57;96268.88;;;9.82;51.93
15405;BME280;7801;48.124;11.590;2023-02-17T00:30:22;96271.00;;;9.80;51.58
15405;BME280;7801;48.124;11.590;2023-02-17T00:32:48;96276.03;;;9.72;51.62
15405;BME280;7801;48.124;11.590;2023-02-17T00:35:13;96275.25;;;9.71;51.48
15405;BME280;7801;48.124;11.590;2023-02-17T00:37:38;96276.81;;;9.77;51.56
15405;BME280;7801;48.124;11.590;2023-02-17T00:40:05;96276.53;;;9.58;53.64
15405;BME280;7801;48.124;11.590;2023-02-17T00:42:30;96279.19;;;9.58;52.44
15405;BME280;7801;48.124;11.590;2023-02-17T00:44:56;96280.00;;;9.64;52.35
15405;BME280;7801;48.124;11.590;2023-02-17T00:47:21;96285.03;;;9.60;52.00
15405;BME280;7801;48.124;11.590;2023-02-17T00:49:46;96281.06;;;9.63;52.08
15405;BME280;7801;48.124;11.590;2023-02-17T00:52:12;96286.38;;;9.68;52.16
15405;BME280;7801;48.124;11.590;2023-02-17T00:54:37;96279.75;;;9.71;52.02
15405;BME280;7801;48.124;11.590;2023-02-17T00:57:04;96281.06;;;9.68;52.02
15405;BME280;7801;48.124;11.590;2023-02-17T00:59:29;96283.97;;;9.67;52.14
15405;BME280;7801;48.124;11.590;2023-02-17T01:01:54;96282.37;;;9.65;51.92
15405;BME280;7801;48.124;11.590;2023-02-17T01:04:20;96289.53;;;9.65;52.24
15405;BME280;7801;48.124;11.590;2023-02-17T01:06:45;96283.97;;;9.67;52.54
15405;BME280;7801;48.124;11.590;2023-02-17T01:09:12;96275.25;;;9.71;51.96
15405;BME280;7801;48.124;11.590;2023-02-17T01:11:39;96283.69;;;9.63;52.69
15405;BME280;7801;48.124;11.590;2023-02-17T01:14:05;96281.84;;;9.69;52.02
15405;BME280;7801;48.124;11.590;2023-02-17T01:16:43;96282.37;;;9.55;52.75
15405;BME280;7801;48.124;11.590;2023-02-17T01:19:12;96278.91;;;9.60;52.28
15405;BME280;7801;48.124;11.590;2023-02-17T01:21:37;96277.34;;;9.54;52.39
15405;BME280;7801;48.124;11.590;2023-02-17T01:24:04;96278.66;;;9.56;52.61
15405;BME280;7801;48.124;11.590;2023-02-17T01:26:32;96278.66;;;9.56;52.08
15405;BME280;7801;48.124;11.590;2023-02-17T01:28:58;96286.31;;;9.43;52.77
15405;BME280;7801;48.124;11.590;2023-02-17T01:31:24;96277.59;;;9.52;52.51
15405;BME280;7801;48.124;11.590;2023-02-17T01:33:52;96270.97;;;9.45;52.66
15405;BME280;7801;48.124;11.590;2023-02-17T01:36:18;96269.13;;;9.50;52.61
15405;BME280;7801;48.124;11.590;2023-02-17T01:38:44;96273.09;;;9.53;52.38
15405;BME280;7801;48.124;11.590;2023-02-17T01:41:11;96267.25;;;9.46;53.13
15405;BME280;7801;48.124;11.590;2023-02-17T01:43:37;96264.88;;;9.34;53.32
15405;BME280;7801;48.124;11.590;2023-02-17T01:46:04;96261.41;;;9.34;53.31
15405;BME280;7801;48.124;11.590;2023-02-17T01:48:35;96267.22;;;9.30;53.55
15405;BME280;7801;48.124;11.590;2023-02-17T01:51:14;96261.66;;;9.37;53.21
15405;BME280;7801;48.124;11.590;2023-02-17T01:53:44;96265.13;;;9.33;53.29
15405;BME280;7801;48.124;11.590;2023-02-17T01:56:13;96263.50;;;9.37;52.42
15405;BME280;7801;48.124;11.590;2023-02-17T01:58:43;96263.81;;;9.45;52.40
15405;BME280;7801;48.124;11.590;2023-02-17T02:01:09;96265.91;;;9.38;52.57
15405;BME280;7801;48.124;11.590;2023-02-17T02:03:35;96261.66;;;9.37;53.01
15405;BME280;7801;48.124;11.590;2023-02-17T02:06:05;96266.47;;;9.45;52.79
15405;BME280;7801;48.124;11.590;2023-02-17T02:08:40;96258.25;;;9.42;52.87
15405;BME280;7801;48.124;11.590;2023-02-17T02:11:07;96251.37;;;9.46;52.32
15405;BME280;7801;48.124;11.590;2023-02-17T02:13:32;96247.38;;;9.43;53.06
15405;BME280;7801;48.124;11.590;2023-02-17T02:16:12;96248.97;;;9.44;52.71
15405;BME280;7801;48.124;11.590;2023-02-17T02:24:22;96249.53;;;9.51;52.46
15405;BME280;7801;48.124;11.590;2023-02-17T02:35:12;96254.00;;;9.46;52.64
15405;BME280;7801;48.124;11.590;2023-02-17T02:40:33;96254.81;;;9.46;52.24
15405;BME280;7801;48.124;11.590;2023-02-17T02:43:01;96255.88;;;9.65;51.74
15405;BME280;7801;48.124;11.590;2023-02-17T02:45:28;96261.19;;;9.60;51.80
15405;BME280;7801;48.124;11.590;2023-02-17T02:47:55;96262.22;;;9.59;52.57
15405;BME280;7801;48.124;11.590;2023-02-17T02:58:26;96255.34;;;9.63;52.18
15405;BME280;7801;48.124;11.590;2023-02-17T03:01:17;96256.16;;;9.69;52.30
15405;BME280;7801;48.124;11.590;2023-02-17T03:04:01;96247.16;;;9.65;52.52
15405;BME280;7801;48.124;11.590;2023-02-17T03:06:39;96246.38;;;9.70;52.58
15405;BME280;7801;48.124;11.590;2023-02-17T03:09:13;96245.81;;;9.62;52.85
15405;BME280;7801;48.124;11.590;2023-02-17T03:11:41;96239.72;;;9.57;52.73
15405;BME280;7801;48.124;11.590;2023-02-17T03:14:12;96238.94;;;9.67;52.65
15405;BME280;7801;48.124;11.590;2023-02-17T03:16:39;96236.53;;;9.80;52.64
15405;BME280;7801;48.124;11.590;2023-02-17T03:19:06;96233.13;;;9.70;52.53
15405;BME280;7801;48.124;11.590;2023-02-17T03:22:00;96224.91;;;9.66;52.51
15405;BME280;7801;48.124;11.590;2023-02-17T03:24:29;96232.31;;;9.64;53.24
15405;BME280;7801;48.124;11.590;2023-02-17T03:26:55;96229.94;;;9.68;52.70
15405;BME280;7801;48.124;11.590;2023-02-17T03:29:20;96225.69;;;9.67;53.14
15405;BME280;7801;48.124;11.590;2023-02-17T03:31:45;96224.38;;;9.69;53.13
15405;BME280;7801;48.124;11.590;2023-02-17T03:34:11;96224.62;;;9.62;53.23
15405;BME280;7801;48.124;11.590;2023-02-17T03:36:36;96223.56;;;9.69;52.55
15405;BME280;7801;48.124;11.590;2023-02-17T03:39:02;96216.97;;;9.71;52.44
15405;BME280;7801;48.124;11.590;2023-02-17T03:41:27;96221.44;;;9.65;53.24
15405;BME280;7801;48.124;11.590;2023-02-17T03:43:52;96224.66;;;9.73;52.86
15405;BME280;7801;48.124;11.590;2023-02-17T03:46:18;96218.00;;;9.80;52.50
15405;BME280;7801;48.124;11.590;2023-02-17T03:48:44;96212.97;;;9.79;52.46
15405;BME280;7801;48.124;11.590;2023-02-17T03:51:15;96222.25;;;9.71;52.42
15405;BME280;7801;48.124;11.590;2023-02-17T03:53:41;96206.06;;;9.78;52.28
15405;BME280;7801;48.124;11.590;2023-02-17T03:56:07;96210.06;;;9.80;52.06
15405;BME280;7801;48.124;11.590;2023-02-17T03:58:33;96216.41;;;9.84;52.75
15405;BME280;7801;48.124;11.590;2023-02-17T04:00:59;96212.44;;;9.82;52.19
15405;BME280;7801;48.124;11.590;2023-02-17T04:03:24;96215.63;;;9.74;52.37
15405;BME280;7801;48.124;11.590;2023-02-17T04:05:49;96215.63;;;9.84;51.23
15405;BME280;7801;48.124;11.590;2023-02-17T04:08:15;96207.94;;;9.82;51.74
15405;BME280;7801;48.124;11.590;2023-02-17T04:10:40;96207.66;;;9.94;52.15
15405;BME280;7801;48.124;11.590;2023-02-17T04:13:05;96203.44;;;9.83;51.82
15405;BME280;7801;48.124;11.590;2023-02-17T04:15:31;96205.81;;;9.84;51.98
15405;BME280;7801;48.124;11.590;2023-02-17T04:17:56;96201.84;;;9.87;51.88
15405;BME280;7801;48.124;11.590;2023-02-17T04:20:21;96201.84;;;9.82;51.74
15405;BME280;7801;48.124;11.590;2023-02-17T04:22:47;96199.19;;;9.87;51.43
15405;BME280;7801;48.124;11.590;2023-02-17T04:25:12;96198.13;;;9.88;51.72
15405;BME280;7801;48.124;11.590;2023-02-17T04:27:37;96195.47;;;9.88;51.63
15405;BME280;7801;48.124;11.590;2023-02-17T04:30:04;96197.34;;;9.87;52.13
15405;BME280;7801;48.124;11.590;2023-02-17T04:32:29;96200.78;;;9.93;51.50
15405;BME280;7801;48.124;11.590;2023-02-17T04:34:55;96204.50;;;9.97;51.99
15405;BME280;7801;48.124;11.590;2023-02-17T04:37:20;96201.31;;;9.90;51.70
15405;BME280;7801;48.124;11.590;2023-02-17T04:39:45;96194.41;;;9.94;52.05
15405;BME280;7801;48.124;11.590;2023-02-17T04:42:11;96203.69;;;9.86;51.45
15405;BME280;7801;48.124;11.590;2023-02-17T04:44:36;96201.81;;;10.02;51.51
15405;BME280;7801;48.124;11.590;2023-02-17T04:47:01;96192.81;;;9.93;52.20
15405;BME280;7801;48.124;11.590;2023-02-17T04:49:27;96193.31;;;10.10;50.68
15405;BME280;7801;48.124;11.590;2023-02-17T04:51:52;96194.91;;;10.06;51.03
15405;BME280;7801;48.124;11.590;2023-02-17T04:54:17;96194.91;;;10.11;50.96
15405;BME280;7801;48.124;11.590;2023-02-17T04:56:43;96188.81;;;10.00;50.93
15405;BME280;7801;48.124;11.590;2023-02-17T04:59:08;96192.53;;;9.99;50.61
15405;BME280;7801;48.124;11.590;2023-02-17T05:01:33;96179.84;;;9.96;51.16
15405;BME280;7801;48.124;11.590;2023-02-17T05:03:58;96179.28;;;10.05;51.03
15405;BME280;7801;48.124;11.590;2023-02-17T05:06:24;96175.56;;;10.06;50.46
15405;BME280;7801;48.124;11.590;2023-02-17T05:08:49;96188.03;;;10.05;50.36
15405;BME280;7801;48.124;11.590;2023-02-17T05:11:15;96172.09;;;10.20;50.36
15405;BME280;7801;48.124;11.590;2023-02-17T05:13:40;96176.34;;;10.11;50.72
15405;BME280;7801;48.124;11.590;2023-02-17T05:16:05;96171.31;;;10.20;51.12
15405;BME280;7801;48.124;11.590;2023-02-17T05:18:31;96173.97;;;10.20;50.96
15405;BME280;7801;48.124;11.590;2023-02-17T05:20:56;96168.91;;;10.23;50.22
15405;BME280;7801;48.124;11.590;2023-02-17T05:23:22;96171.56;;;10.18;50.81
15405;BME280;7801;48.124;11.590;2023-02-17T05:25:47;96165.75;;;10.16;50.91
15405;BME280;7801;48.124;11.590;2023-02-17T05:28:12;96173.16;;;10.19;50.90
15405;BME280;7801;48.124;11.590;2023-02-17T05:30:38;96161.50;;;10.25;50.63
15405;BME280;7801;48.124;11.590;2023-02-17T05:33:03;96169.47;;;10.15;51.31
15405;BME280;7801;48.124;11.590;2023-02-17T05:35:28;96160.44;;;10.11;51.29
15405;BME280;7801;48.124;11.590;2023-02-17T05:37:54;96162.56;;;10.24;50.54
15405;BME280;7801;48.124;11.590;2023-02-17T05:40:19;96166.81;;;10.20;50.91
15405;BME280;7801;48.124;11.590;2023-02-17T05:42:45;96164.16;;;10.05;52.09
15405;BME280;7801;48.124;11.590;2023-02-17T05:45:10;96169.72;;;10.19;52.11
15405;BME280;7801;48.124;11.590;2023-02-17T05:47:35;96171.31;;;10.10;51.75
15405;BME280;7801;48.124;11.590;2023-02-17T05:50:02;96163.34;;;10.25;51.72
15405;BME280;7801;48.124;11.590;2023-02-17T05:52:27;96168.91;;;10.28;51.00
15405;BME280;7801;48.124;11.590;2023-02-17T05:54:52;96166.78;;;10.30;50.92
15405;BME280;7801;48.124;11.590;2023-02-17T05:57:18;96175.03;;;10.19;51.13
15405;BME280;7801;48.124;11.590;2023-02-17T05:59:43;96167.06;;;10.29;50.74
15405;BME280;7801;48.124;11.590;2023-02-17T06:02:08;96168.38;;;10.31;51.17
15405;BME280;7801;48.124;11.590;2023-02-17T06:04:34;96177.94;;;10.27;50.96
15405;BME280;7801;48.124;11.590;2023-02-17T06:06:59;96180.59;;;10.22;50.88
15405;BME280;7801;48.124;11.590;2023-02-17T06:09:24;96175.81;;;10.24;50.87
15405;BME280;7801;48.124;11.590;2023-02-17T06:11:50;96168.41;;;10.21;50.80
15405;BME280;7801;48.124;11.590;2023-02-17T06:14:16;96181.66;;;10.21;50.86
15405;BME280;7801;48.124;11.590;2023-02-17T06:16:41;96187.75;;;10.17;51.23
15405;BME280;7801;48.124;11.590;2023-02-17T06:19:06;96189.06;;;10.24;51.44
15405;BME280;7801;48.124;11.590;2023-02-17T06:21:31;96184.81;;;10.33;50.55
15405;BME280;7801;48.124;11.590;2023-02-17T06:23:57;96190.66;;;10.25;50.87
15405;BME280;7801;48.124;11.590;2023-02-17T06:26:22;96189.59;;;10.21;51.36
15405;BME280;7801;48.124;11.590;2023-02-17T06:28:48;96191.19;;;10.32;51.27
15405;BME280;7801;48.124;11.590;2023-02-17T06:31:13;96196.75;;;10.26;51.51
15405;BME280;7801;48.124;11.590;2023-02-17T06:33:39;96205.50;;;10.21;51.43
15405;BME280;7801;48.124;11.590;2023-02-17T06:36:04;96200.75;;;10.28;53.53
15405;BME280;7801;48.124;11.590;2023-02-17T06:38:30;96199.69;;;10.14;54.46
15405;BME280;7801;48.124;11.590;2023-02-17T06:40:55;96205.00;;;10.14;56.11
15405;BME280;7801;48.124;11.590;2023-02-17T06:43:21;96207.91;;;10.18;56.91
15405;BME280;7801;48.124;11.590;2023-02-17T06:45:46;96203.13;;;10.10;57.14
15405;BME280;7801;48.124;11.590;2023-02-17T06:48:11;96197.56;;;10.16;57.86
15405;BME280;7801;48.124;11.590;2023-02-17T06:50:37;96201.28;;;10.05;58.74
15405;BME280;7801;48.124;11.590;2023-02-17T06:53:03;96200.47;;;10.05;58.99
15405;BME280;7801;48.124;11.590;2023-02-17T06:55:28;96197.56;;;10.11;58.97
15405;BME280;7801;48.124;11.590;2023-02-17T06:57:54;96198.09;;;10.03;59.29
15405;BME280;7801;48.124;11.590;2023-02-17T07:00:20;96200.75;;;10.08;58.54
15405;BME280;7801;48.124;11.590;2023-02-17T07:02:46;96196.50;;;10.22;58.13
15405;BME280;7801;48.124;11.590;2023-02-17T07:05:11;96199.69;;;10.24;58.98
15405;BME280;7801;48.124;11.590;2023-02-17T07:07:36;96192.25;;;10.26;58.45
15405;BME280;7801;48.124;11.590;2023-02-17T07:10:02;96201.28;;;10.25;57.92
15405;BME280;7801;48.124;11.590;2023-02-17T07:12:28;96190.41;;;10.22;58.58
15405;BME280;7801;48.124;11.590;2023-02-17T07:14:53;96190.91;;;10.39;57.88
15405;BME280;7801;48.124;11.590;2023-02-17T07:17:18;96183.78;;;11.67;86.61
15405;BME280;7801;48.124;11.590;2023-02-17T07:19:44;96174.63;;;12.41;80.00
15405;BME280;7801;48.124;11.590;2023-02-17T07:22:09;96179.72;;;12.80;68.59
15405;BME280;7801;48.124;11.590;2023-02-17T07:24:34;96187.03;;;13.12;66.58
15405;BME280;7801;48.124;11.590;2023-02-17T07:27:00;96187.84;;;13.50;62.33
15405;BME280;7801;48.124;11.590;2023-02-17T07:29:26;96191.94;;;13.61;61.60
15405;BME280;7801;48.124;11.590;2023-02-17T07:31:51;96188.94;;;13.82;61.58
15405;BME280;7801;48.124;11.590;2023-02-17T07:34:17;96195.72;;;13.74;58.89
15405;BME280;7801;48.124;11.590;2023-02-17T07:36:42;96190.59;;;13.77;55.93
15405;BME280;7801;48.124;11.590;2023-02-17T07:39:07;96194.72;;;14.02;58.42
15405;BME280;7801;48.124;11.590;2023-02-17T07:41:33;96200.44;;;13.96;55.63
15405;BME280;7801;48.124;11.590;2023-02-17T07:43:58;96194.28;;;13.82;58.01
15405;BME280;7801;48.124;11.590;2023-02-17T07:46:24;96203.59;;;13.98;55.83
15405;BME280;7801;48.124;11.590;2023-02-17T07:48:50;96199.41;;;12.84;53.77
15405;BME280;7801;48.124;11.590;2023-02-17T07:51:19;96192.81;;;12.29;55.88
15405;BME280;7801;48.124;11.590;2023-02-17T07:53:44;96203.63;;;12.14;56.22
15405;BME280;7801;48.124;11.590;2023-02-17T07:56:12;96202.53;;;11.86;57.53
15405;BME280;7801;48.124;11.590;2023-02-17T07:58:39;96214.47;;;11.54;58.48
15405;BME280;7801;48.124;11.590;2023-02-17T08:01:09;96208.19;;;11.79;59.07
15405;BME280;7801;48.124;11.590;2023-02-17T08:03:35;96203.94;;;11.73;60.89
15405;BME280;7801;48.124;11.590;2023-02-17T08:06:01;96217.09;;;11.59;58.85
15405;BME280;7801;48.124;11.590;2023-02-17T08:08:27;96208.62;;;11.52;59.38
15405;BME280;7801;48.124;11.590;2023-02-17T08:11:12;96209.50;;;11.82;59.18
15405;BME280;7801;48.124;11.590;2023-02-17T08:13:58;96215.47;;;11.63;59.48
15405;BME280;7801;48.124;11.590;2023-02-17T08:16:23;96215.22;;;11.60;60.06
15405;BME280;7801;48.124;11.590;2023-02-17T08:18:51;96202.69;;;11.65;60.26
15405;BME280;7801;48.124;11.590;2023-02-17T08:21:16;96216.69;;;11.81;60.16
15405;BME280;7801;48.124;11.590;2023-02-17T08:23:42;96213.00;;;11.77;60.43
15405;BME280;7801;48.124;11.590;2023-02-17T08:26:07;96207.97;;;11.70;61.49
15405;BME280;7801;48.124;11.590;2023-02-17T08:28:32;96216.69;;;11.81;60.53
15405;BME280;7801;48.124;11.590;2023-02-17T08:30:58;96221.66;;;11.88;61.31
15405;BME280;7801;48.124;11.590;2023-02-17T08:33:23;96213.16;;;11.86;60.63
15405;BME280;7801;48.124;11.590;2023-02-17T08:35:48;96214.22;;;11.90;60.25
15405;BME280;7801;48.124;11.590;2023-02-17T08:38:14;96211.75;;;11.98;61.69
15405;BME280;7801;48.124;11.590;2023-02-17T08:40:39;96228.91;;;12.11;61.29
15405;BME280;7801;48.124;11.590;2023-02-17T08:43:08;96221.50;;;12.08;60.66
15405;BME280;7801;48.124;11.590;2023-02-17T08:45:33;96214.97;;;12.24;60.58
15405;BME280;7801;48.124;11.590;2023-02-17T08:48:01;96223.31;;;12.13;61.07
15405;BME280;7801;48.124;11.590;2023-02-17T08:50:27;96205.91;;;12.25;61.71
15405;BME280;7801;48.124;11.590;2023-02-17T08:52:52;96223.69;;;12.30;61.68
15405;BME280;7801;48.124;11.590;2023-02-17T08:55:17;96220.22;;;12.29;61.93
15405;BME280;7801;48.124;11.590;2023-02-17T08:57:44;96233.88;;;12.23;62.46
15405;BME280;7801;48.124;11.590;2023-02-17T09:00:10;96219.09;;;12.35;65.99
15405;BME280;7801;48.124;11.590;2023-02-17T09:02:36;96232.56;;;12.20;63.22
15405;BME280;7801;48.124;11.590;2023-02-17T09:05:04;96237.38;;;12.18;62.74
15405;BME280;7801;48.124;11.590;2023-02-17T09:07:30;96231.00;;;12.43;63.84
15405;BME280;7801;48.124;11.590;2023-02-17T09:09:55;96226.81;;;12.37;62.48
15405;BME280;7801;48.124;11.590;2023-02-17T09:12:20;96228.59;;;12.47;62.90
15405;BME280;7801;48.124;11.590;2023-02-17T09:14:46;96233.19;;;12.36;63.78
15405;BME280;7801;48.124;11.590;2023-02-17T09:17:11;96244.72;;;12.26;63.26
15405;BME280;7801;48.124;11.590;2023-02-17T09:19:37;96246.78;;;12.34;64.49
15405;BME280;7801;48.124;11.590;2023-02-17T09:22:03;96230.59;;;12.02;67.95
15405;BME280;7801;48.124;11.590;2023-02-17T09:24:28;96243.22;;;11.86;69.15
15405;BME280;7801;48.124;11.590;2023-02-17T09:26:54;96240.47;;;11.96;70.53
15405;BME280;7801;48.124;11.590;2023-02-17T09:29:19;96249.25;;;11.97;69.62
15405;BME280;7801;48.124;11.590;2023-02-17T09:31:44;96237.03;;;11.96;68.91
15405;BME280;7801;48.124;11.590;2023-02-17T09:34:10;96238.47;;;12.12;68.43
15405;BME280;7801;48.124;11.590;2023-02-17T09:36:39;96239.38;;;12.02;67.81
15405;BME280;7801;48.124;11.590;2023-02-17T09:39:05;96236.19;;;12.00;68.28
15405;BME280;7801;48.124;11.590;2023-02-17T09:41:41;96233.06;;;12.22;67.64
15405;BME280;7801;48.124;11.590;2023-02-17T09:44:16;96238.63;;;12.26;67.50
15405;BME280;7801;48.124;11.590;2023-02-17T09:46:49;96241.38;;;12.16;66.61
15405;BME280;7801;48.124;11.590;2023-02-17T09:49:22;96244.16;;;12.29;67.95
15405;BME280;7801;48.124;11.590;2023-02-17T09:52:01;96238.00;;;13.48;74.60
15405;BME280;7801;48.124;11.590;2023-02-17T09:54:39;96227.91;;;15.25;62.59
15405;BME280;7801;48.124;11.590;2023-02-17T09:57:07;96233.81;;;13.93;59.13
15405;BME280;7801;48.124;11.590;2023-02-17T09:59:40;96253.13;;;13.10;61.11
15405;BME280;7801;48.124;11.590;2023-02-17T10:02:38;96238.31;;;12.80;62.87
15405;BME280;7801;48.124;11.590;2023-02-17T10:05:08;96248.22;;;12.51;63.34
15405;BME280;7801;48.124;11.590;2023-02-17T10:07:45;96250.94;;;12.46;65.01
15405;BME280;7801;48.124;11.590;2023-02-17T10:10:16;96256.34;;;12.35;64.96
15405;BME280;7801;48.124;11.590;2023-02-17T10:12:47;96254.72;;;12.39;64.74
15405;BME280;7801;48.124;11.590;2023-02-17T10:15:17;96253.13;;;12.38;64.00
15405;BME280;7801;48.124;11.590;2023-02-17T10:17:56;96244.59;;;12.42;64.46
15405;BME280;7801;48.124;11.590;2023-02-17T10:20:31;96247.78;;;12.44;64.51
15405;BME280;7801;48.124;11.590;2023-02-17T10:23:20;96236.06;;;12.45;64.30
15405;BME280;7801;48.124;11.590;2023-02-17T10:31:28;96236.13;;;12.63;63.82
15405;BME280;7801;48.124;11.590;2023-02-17T10:34:03;96238.72;;;12.45;64.07
15405;BME280;7801;48.124;11.590;2023-02-17T10:39:10;96247.25;;;12.42;64.33
15405;BME280;7801;48.124;11.590;2023-02-17T10:41:38;96235.97;;;12.50;64.39
15405;BME280;7801;48.124;11.590;2023-02-17T10:44:10;96229.25;;;12.57;63.52
15405;BME280;7801;48.124;11.590;2023-02-17T10:46:39;96229.53;;;12.56;63.75
15405;BME280;7801;48.124;11.590;2023-02-17T10:49:25;96223.25;;;12.70;63.59
15405;BME280;7801;48.124;11.590;2023-02-17T10:51:51;96220.84;;;12.69;63.52
15405;BME280;7801;48.124;11.590;2023-02-17T10:54:34;96224.72;;;12.82;62.47
15405;BME280;7801;48.124;11.590;2023-02-17T10:57:02;96224.25;;;12.74;62.25
15405;BME280;7801;48.124;11.590;2023-02-17T10:59:32;96228.50;;;12.76;61.72
15405;BME280;7801;48.124;11.590;2023-02-17T11:02:20;96210.97;;;12.93;61.24
15405;BME280;7801;48.124;11.590;2023-02-17T11:04:48;96212.34;;;13.09;60.50
15405;BME280;7801;48.124;11.590;2023-02-17T11:07:16;96228.22;;;13.01;60.41
15405;BME280;7801;48.124;11.590;2023-02-17T11:09:49;96199.97;;;13.24;59.57
15405;BME280;7801;48.124;11.590;2023-02-17T11:12:32;96195.44;;;13.24;60.26
15405;BME280;7801;48.124;11.590;2023-02-17T11:15:03;96206.59;;;13.45;59.46
15405;BME280;7801;48.124;11.590;2023-02-17T11:17:35;96211.13;;;13.45;58.97
15405;BME280;7801;48.124;11.590;2023-02-17T11:20:26;96207.44;;;13.59;59.90
15405;BME280;7801;48.124;11.590;2023-02-17T11:23:04;96201.00;;;13.60;58.25
15405;BME280;7801;48.124;11.590;2023-02-17T11:25:33;96199.19;;;13.74;60.08
15405;BME280;7801;48.124;11.590;2023-02-17T11:28:02;96192.53;;;13.91;59.40
15405;BME280;7801;48.124;11.590;2023-02-17T11:30:29;96197.16;;;13.85;57.67
15405;BME280;7801;48.124;11.590;2023-02-17T11:32:55;96194.28;;;13.82;58.10
15405;BME280;7801;48.124;11.590;2023-02-17T11:35:29;96196.56;;;13.88;57.26
15405;BME280;7801;48.124;11.590;2023-02-17T11:38:12;96188.28;;;13.90;57.55
15405;BME280;7801;48.124;11.590;2023-02-17T11:40:38;96191.34;;;13.97;57.41
15405;BME280;7801;48.124;11.590;2023-02-17T11:43:04;96176.59;;;13.86;57.71
15405;BME280;7801;48.124;11.590;2023-02-17T11:56:34;96157.34;;;13.89;57.62
15405;BME280;7801;48.124;11.590;2023-02-17T12:04:23;96156.00;;;14.05;57.70
15405;BME280;7801;48.124;11.590;2023-02-17T12:21:08;96141.44;;;13.97;58.12
15405;BME280;7801;48.124;11.590;2023-02-17T12:23:56;96140.94;;;13.95;57.90
15405;BME280;7801;48.124;11.590;2023-02-17T12:26:38;96145.13;;;14.15;58.05
15405;BME280;7801;48.124;11.590;2023-02-17T12:29:40;96155.72;;;14.20;58.87
15405;BME280;7801;48.124;11.590;2023-02-17T12:35:13;96136.53;;;14.18;58.24
15405;BME280;7801;48.124;11.590;2023-02-17T12:37:54;96154.03;;;14.24;58.90
15405;BME280;7801;48.124;11.590;2023-02-17T12:45:41;96160.25;;;14.06;60.02
15405;BME280;7801;48.124;11.590;2023-02-17T12:48:25;96139.97;;;13.91;60.32
15405;BME280;7801;48.124;11.590;2023-02-17T12:51:06;96134.66;;;14.05;60.78
15405;BME280;7801;48.124;11.590;2023-02-17T12:53:47;96144.31;;;14.01;61.79
15405;BME280;7801;48.124;11.590;2023-02-17T12:58:58;96148.44;;;13.93;62.36
15405;BME280;7801;48.124;11.590;2023-02-17T13:01:30;96153.91;;;14.02;62.85
15405;BME280;7801;48.124;11.590;2023-02-17T13:03:59;96156.59;;;14.02;61.94
15405;BME280;7801;48.124;11.590;2023-02-17T13:06:31;96150.25;;;13.98;61.69
15405;BME280;7801;48.124;11.590;2023-02-17T13:09:29;96141.25;;;13.94;62.10
15405;BME280;7801;48.124;11.590;2023-02-17T13:14:43;96138.78;;;13.84;61.74
15405;BME280;7801;48.124;11.590;2023-02-17T13:17:39;96138.56;;;13.94;62.18
15405;BME280;7801;48.124;11.590;2023-02-17T13:22:41;96156.34;;;13.85;62.31
15405;BME280;7801;48.124;11.590;2023-02-17T13:25:10;96143.59;;;13.82;62.75
15405;BME280;7801;48.124;11.590;2023-02-17T13:27:38;96152.41;;;13.82;63.41
15405;BME280;7801;48.124;11.590;2023-02-17T13:32:36;96156.94;;;13.82;64.52
15405;BME280;7801;48.124;11.590;2023-02-17T13:35:28;96154.19;;;13.87;63.38
15405;BME280;7801;48.124;11.590;2023-02-17T13:37:54;96141.59;;;14.74;64.75
15405;BME280;7801;48.124;11.590;2023-02-17T13:42:47;96134.97;;;15.89;62.89
15405;BME280;7801;48.124;11.590;2023-02-17T13:47:58;96154.03;;;16.18;57.04
15405;BME280;7801;48.124;11.590;2023-02-17T13:50:31;96158.69;;;16.43;58.31
15405;BME280;7801;48.124;11.590;2023-02-17T13:52:57;96151.81;;;16.60;57.97
15405;BME280;7801;48.124;11.590;2023-02-17T13:55:23;96140.28;;;16.50;56.07
15405;BME280;7801;48.124;11.590;2023-02-17T13:57:56;96133.47;;;16.44;56.22
15405;BME280;7801;48.124;11.590;2023-02-17T14:00:33;96121.66;;;16.37;56.73
15405;BME280;7801;48.124;11.590;2023-02-17T14:03:10;96134.56;;;16.43;55.18
15405;BME280;7801;48.124;11.590;2023-02-17T14:05:42;96131.31;;;15.40;57.40
15405;BME280;7801;48.124;11.590;2023-02-17T14:08:18;96143.69;;;14.64;59.83
15405;BME280;7801;48.124;11.590;2023-02-17T14:10:45;96140.34;;;14.44;61.10
15405;BME280;7801;48.124;11.590;2023-02-17T14:13:11;96129.63;;;14.17;61.83
15405;BME280;7801;48.124;11.590;2023-02-17T14:15:37;96137.09;;;13.88;63.25
15405;BME280;7801;48.124;11.590;2023-02-17T14:18:14;96136.81;;;14.03;63.62
15405;BME280;7801;48.124;11.590;2023-02-17T14:20:40;96139.06;;;13.96;63.17
15405;BME280;7801;48.124;11.590;2023-02-17T14:23:11;96139.19;;;13.91;63.38
15405;BME280;7801;48.124;11.590;2023-02-17T14:25:39;96145.66;;;13.71;63.75
15405;BME280;7801;48.124;11.590;2023-02-17T14:28:25;96163.75;;;13.55;64.53
15405;BME280;7801;48.124;11.590;2023-02-17T14:30:52;96148.97;;;13.63;64.25
15405;BME280;7801;48.124;11.590;2023-02-17T14:33:22;96146.59;;;13.61;64.30
15405;BME280;7801;48.124;11.590;2023-02-17T14:35:57;96151.50;;;13.54;64.53
15405;BME280;7801;48.124;11.590;2023-02-17T14:40:56;96152.47;;;13.45;65.10
15405;BME280;7801;48.124;11.590;2023-02-17T14:43:22;96153.75;;;13.66;64.72